Time;durP1;ratioP1;P1;durP2;ratioP2;P2;SDS_P1;SDS_P2;PMS_P1;PMS_P2;Temp;Humidity;BMP_temperature;BMP_pressure;BME280_temperature;BME280_humidity;BME280_pressure;Samples;Min_cycle;Max_cycle;Signal;HPM_P1;HPM_P2
2022/12/25 00:01:47;;;;;;;4.87;2.30;;;7.50;99.90;;;5.32;100.00;100441.50;10520838;28;20059;-87
2022/12/25 00:06:50;;;;;;;6.97;2.60;;;7.60;99.90;;;5.35;100.00;100422.81;10537860;28;20059;-87
2022/12/25 00:11:53;;;;;;;5.43;2.23;;;7.60;99.90;;;5.39;100.00;100426.00;10576095;27;20102;-84
2022/12/25 00:16:56;;;;;;;4.83;1.83;;;7.70;99.90;;;5.40;100.00;100446.16;10529526;28;20114;-83
2022/12/25 00:21:59;;;;;;;4.60;1.60;;;7.70;99.90;;;5.38;100.00;100454.16;10545792;28;20067;-83
2022/12/25 00:27:02;;;;;;;6.03;2.30;;;7.70;99.90;;;5.36;100.00;100460.53;10542424;28;20060;-84
2022/12/25 00:32:05;;;;;;;9.63;4.50;;;7.60;99.90;;;5.31;100.00;100470.63;10520569;28;20068;-84
2022/12/25 00:37:08;;;;;;;8.97;3.60;;;7.60;99.90;;;5.33;100.00;100468.69;10543776;28;20052;-84
2022/12/25 00:42:20;;;;;;;7.47;3.40;;;7.60;99.90;;;5.33;100.00;100471.31;10567337;28;20067;-84
2022/12/25 00:47:23;;;;;;;;;;;7.60;99.90;;;5.32;100.00;100470.47;10563067;27;20111;-84
2022/12/25 00:52:26;;;;;;;7.53;3.63;;;7.60;99.90;;;5.26;100.00;100481.53;10549006;28;20371;-84
2022/12/25 00:57:29;;;;;;;6.27;3.27;;;7.60;99.90;;;5.28;100.00;100486.69;10563253;28;20055;-84
2022/12/25 01:02:32;;;;;;;6.57;3.07;;;7.60;99.90;;;5.24;100.00;100495.81;10549473;28;20118;-86
2022/12/25 01:07:38;;;;;;;7.47;3.33;;;7.50;99.90;;;5.18;100.00;100505.03;10540907;27;20049;-86
2022/12/25 01:12:42;;;;;;;10.33;2.97;;;7.50;99.90;;;5.13;100.00;100503.75;10565091;28;20571;-87
2022/12/25 01:17:45;;;;;;;5.50;2.97;;;7.50;99.90;;;5.08;100.00;100510.22;10530359;28;20057;-86
2022/12/25 01:22:48;;;;;;;6.43;2.77;;;7.40;99.90;;;5.06;100.00;100514.78;10540854;28;20060;-88
2022/12/25 01:27:51;;;;;;;5.53;2.40;;;7.40;99.90;;;5.05;100.00;100512.28;10530305;28;20527;-87
2022/12/25 01:32:54;;;;;;;4.03;2.33;;;7.30;99.90;;;5.00;100.00;100515.28;10555887;28;20067;-87
2022/12/25 01:37:57;;;;;;;7.00;2.93;;;7.30;99.90;;;4.99;100.00;100518.88;10560799;28;20105;-87
2022/12/25 01:43:00;;;;;;;7.87;3.47;;;7.30;99.90;;;4.97;100.00;100526.06;10553664;28;20110;-87
2022/12/25 01:48:14;;;;;;;6.80;3.20;;;7.30;99.90;;;4.99;100.00;100521.53;10556625;28;20056;-87
2022/12/25 01:53:17;;;;;;;8.27;2.80;;;7.30;99.90;;;4.96;100.00;100519.13;10545713;28;20060;-84
2022/12/25 01:58:20;;;;;;;8.47;3.30;;;7.30;99.90;;;4.92;100.00;100533.50;10536410;28;20647;-84
2022/12/25 02:03:24;;;;;;;8.93;3.70;;;7.20;99.90;;;4.87;100.00;100527.78;10525783;28;20581;-84
2022/12/25 02:08:27;;;;;;;9.70;3.67;;;7.20;99.90;;;4.85;100.00;100521.78;10521167;28;20061;-84
2022/12/25 02:13:31;;;;;;;10.73;4.87;;;7.10;99.90;;;4.81;100.00;100520.38;10519474;28;20450;-84
2022/12/25 02:18:50;;;;;;;9.07;4.07;;;7.10;99.90;;;4.77;100.00;100514.50;10555801;27;20056;-84
2022/12/25 02:24:51;;;;;;;6.20;3.00;;;7.10;99.90;;;4.71;100.00;100519.41;10548067;28;20060;-83
2022/12/25 02:30:06;;;;;;;5.37;2.50;;;7.00;99.90;;;4.61;100.00;100514.03;10461474;27;20063;-83
2022/12/25 02:35:17;;;;;;;10.93;3.50;;;6.90;99.90;;;4.61;100.00;100521.09;10521374;28;20068;-83
2022/12/25 02:40:36;;;;;;;6.20;2.60;;;6.90;99.90;;;4.56;100.00;100540.75;10549421;28;20424;-83
2022/12/25 03:07:47;;;;;;;2.90;1.60;;;7.10;99.90;;;4.86;100.00;100573.50;10563068;27;20063;-89
2022/12/25 03:13:00;;;;;;;2.03;1.20;;;7.10;99.90;;;4.88;100.00;100568.94;10542658;28;20092;-88
2022/12/25 03:18:12;;;;;;;2.63;1.30;;;7.20;99.90;;;4.86;100.00;100565.59;10532187;28;20067;-88
2022/12/25 03:28:42;;;;;;;2.93;1.30;;;7.20;99.90;;;4.94;100.00;100576.34;10554868;28;20137;-89
2022/12/25 04:39:29;;;;;;;6.03;2.30;;;6.50;99.90;;;4.38;100.00;100586.94;10561158;28;20056;-84
2022/12/25 04:44:32;;;;;;;6.83;2.40;;;6.60;99.90;;;4.45;100.00;100589.91;10571185;28;20254;-84
2022/12/25 04:49:36;;;;;;;5.87;2.57;;;6.70;99.90;;;4.49;100.00;100600.06;10539637;28;20087;-84
2022/12/25 04:54:39;;;;;;;6.67;2.03;;;6.80;99.90;;;4.59;100.00;100600.19;10573137;28;20091;-83
2022/12/25 04:59:42;;;;;;;5.30;1.83;;;6.90;99.90;;;4.60;100.00;100603.66;10543307;28;20550;-83
2022/12/25 05:04:46;;;;;;;3.63;2.13;;;6.90;99.90;;;4.49;100.00;100600.06;10554752;28;20057;-83
2022/12/25 05:09:49;;;;;;;5.50;2.50;;;6.80;99.90;;;4.35;100.00;100616.09;10561513;28;20384;-84
2022/12/25 05:14:51;;;;;;;7.67;3.97;;;6.70;99.90;;;4.15;100.00;100617.63;10557040;27;20146;-88
2022/12/25 05:19:54;;;;;;;9.47;3.80;;;6.50;99.90;;;4.05;100.00;100610.53;10526095;28;20053;-87
2022/12/25 05:24:57;;;;;;;5.43;2.13;;;6.40;99.90;;;4.05;100.00;100616.63;10530098;28;20065;-88
2022/12/25 05:30:00;;;;;;;8.60;3.30;;;6.40;99.90;;;4.05;100.00;100623.69;10574541;28;20055;-87
2022/12/25 05:35:07;;;;;;;9.13;3.30;;;6.30;99.90;;;4.00;100.00;100629.28;10533551;28;20076;-87
2022/12/25 05:40:10;;;;;;;9.90;4.00;;;6.30;99.90;;;3.95;100.00;100626.16;10538185;28;20063;-88
2022/12/25 05:45:13;;;;;;;6.30;3.53;;;6.30;99.90;;;3.88;100.00;100643.34;10527969;28;20522;-87
2022/12/25 05:50:16;;;;;;;5.80;3.20;;;6.20;99.90;;;3.71;100.00;100649.84;10533805;28;20106;-89
2022/12/25 05:55:19;;;;;;;7.80;3.57;;;6.00;99.90;;;3.55;100.00;100658.03;10517131;28;20057;-89
2022/12/25 06:00:22;;;;;;;6.30;3.23;;;5.90;99.90;;;3.36;100.00;100666.41;10548869;28;20059;-89
2022/12/25 06:05:26;;;;;;;6.73;4.10;;;5.70;99.90;;;3.18;100.00;100667.72;10537134;28;20068;-88
2022/12/25 06:10:29;;;;;;;7.00;3.57;;;5.60;99.90;;;3.04;100.00;100668.69;10543314;28;20056;-88
2022/12/25 06:15:32;;;;;;;7.43;3.63;;;5.40;99.90;;;2.89;100.00;100657.47;10531205;28;20064;-88
2022/12/25 06:20:38;;;;;;;8.97;4.20;;;5.30;99.90;;;2.76;100.00;100661.91;10550689;28;20070;-85
2022/12/25 06:25:41;;;;;;;8.50;4.17;;;5.10;99.90;;;2.62;100.00;100675.97;10539052;28;20419;-86
2022/12/25 06:30:44;;;;;;;7.37;4.43;;;5.00;99.90;;;2.49;100.00;100687.41;10521366;28;20059;-85
2022/12/25 06:35:47;;;;;;;7.53;4.57;;;4.90;99.90;;;2.38;100.00;100688.13;10530257;28;20139;-83
2022/12/25 06:40:50;;;;;;;14.30;7.00;;;4.80;99.90;;;2.36;100.00;100687.41;10550596;28;20415;-82
2022/12/25 06:45:54;;;;;;;35.57;15.40;;;4.70;99.90;;;2.30;100.00;100688.66;10518002;28;20060;-82
2022/12/25 06:50:57;;;;;;;26.30;11.87;;;4.60;99.90;;;2.31;100.00;100703.44;10562863;28;20060;-82
2022/12/25 06:56:05;;;;;;;27.57;13.20;;;4.60;99.90;;;2.40;100.00;100704.63;10541554;28;20092;-82
2022/12/25 07:01:13;;;;;;;22.00;10.47;;;4.70;99.90;;;2.47;100.00;100708.50;10522577;28;20523;-81
2022/12/25 07:06:18;;;;;;;49.23;18.77;;;4.70;99.90;;;2.54;100.00;100716.81;10557594;28;20087;-83
2022/12/25 07:11:22;;;;;;;46.70;20.67;;;4.70;99.90;;;2.54;100.00;100727.28;10543796;28;20930;-81
2022/12/25 07:16:25;;;;;;;91.10;33.77;;;4.80;99.90;;;2.54;100.00;100733.38;10551255;28;20060;-88
2022/12/25 07:21:28;;;;;;;134.87;46.63;;;4.80;99.90;;;2.57;100.00;100741.03;10553162;28;20056;-89
2022/12/25 07:26:31;;;;;;;115.77;49.27;;;4.90;99.90;;;2.66;100.00;100750.09;10562307;27;20502;-91
2022/12/25 07:31:34;;;;;;;110.17;43.50;;;4.90;99.90;;;2.75;100.00;100756.47;10563078;27;20060;-86
2022/12/25 07:36:38;;;;;;;52.80;24.93;;;5.00;99.90;;;3.13;100.00;100769.63;10552489;28;20068;-86
2022/12/25 07:41:42;;;;;;;33.63;16.20;;;5.20;99.90;;;3.71;100.00;100750.56;10556882;28;20531;-88
2022/12/25 07:46:47;;;;;;;21.87;11.67;;;5.50;99.90;;;4.39;100.00;100746.47;10544261;28;20065;-88
2022/12/25 07:51:50;;;;;;;23.43;10.80;;;6.00;99.90;;;5.08;100.00;100757.00;10549319;28;20405;-85
2022/12/25 07:56:53;;;;;;;142.33;30.10;;;6.50;99.90;;;5.76;100.00;100761.28;10541213;28;20054;-84
2022/12/25 08:01:56;;;;;;;53.13;15.57;;;7.00;99.90;;;6.39;100.00;100762.28;10561718;28;20105;-88
2022/12/25 08:06:59;;;;;;;44.83;20.07;;;7.60;99.90;;;6.57;100.00;100774.94;10566186;28;20063;-86
2022/12/25 08:12:02;;;;;;;302.90;67.60;;;8.00;99.90;;;6.79;100.00;100772.16;10546228;28;20114;-84
2022/12/25 08:17:05;;;;;;;133.47;31.90;;;8.30;99.90;;;7.10;100.00;100780.13;10546656;28;20060;-86
2022/12/25 08:22:08;;;;;;;109.60;35.57;;;8.60;99.90;;;7.49;100.00;100776.66;10551030;28;20057;-86
2022/12/25 08:27:11;;;;;;;35.10;15.90;;;9.00;99.90;;;7.96;100.00;100784.03;10561698;28;20503;-85
2022/12/25 08:32:14;;;;;;;121.77;36.07;;;9.50;99.90;;;8.38;100.00;100779.38;10545307;28;20060;-86
2022/12/25 08:37:17;;;;;;;69.47;20.17;;;9.90;99.90;;;8.70;100.00;100779.09;10557203;28;20134;-87
2022/12/25 08:42:20;;;;;;;157.03;35.23;;;10.40;99.90;;;8.87;100.00;100780.16;10548297;28;20109;-85
2022/12/25 08:47:23;;;;;;;22.30;10.13;;;10.70;99.90;;;8.82;100.00;100780.59;10553057;28;20133;-86
2022/12/25 08:52:27;;;;;;;26.07;10.00;;;10.80;99.90;;;8.83;100.00;100786.75;10531764;28;20401;-86
2022/12/25 08:57:30;;;;;;;42.13;13.17;;;10.90;99.90;;;8.45;100.00;100792.88;10540841;28;20055;-86
2022/12/25 09:02:34;;;;;;;16.17;9.00;;;10.60;99.90;;;8.01;100.00;100787.97;10533865;28;20428;-86
2022/12/25 09:07:40;;;;;;;27.43;11.13;;;10.30;99.90;;;7.63;100.00;100777.28;10576222;28;20063;-86
2022/12/25 09:12:42;;;;;;;31.07;14.17;;;9.90;99.90;;;7.39;100.00;100785.56;10550178;28;20084;-86
2022/12/25 09:17:45;;;;;;;295.17;53.40;;;9.60;99.90;;;7.30;100.00;100794.28;10543977;28;20064;-86
2022/12/25 09:22:48;;;;;;;19.73;9.17;;;9.50;99.90;;;7.19;99.93;100796.03;10531293;28;20057;-87
2022/12/25 09:27:51;;;;;;;15.73;7.70;;;9.30;99.90;;;7.08;99.91;100804.06;10521805;28;20061;-82
2022/12/25 09:32:55;;;;;;;20.43;9.37;;;9.30;99.90;;;7.05;99.90;100788.44;10558679;28;20051;-82
2022/12/25 09:37:59;;;;;;;42.43;15.07;;;9.20;99.90;;;7.11;100.00;100803.78;10563824;27;20060;-81
2022/12/25 09:43:02;;;;;;;27.93;12.47;;;9.30;99.90;;;7.18;100.00;100802.28;10555108;28;20057;-87
2022/12/25 09:48:05;;;;;;;14.83;8.73;;;9.40;99.90;;;7.32;100.00;100808.22;10545409;27;20113;-87
2022/12/25 09:53:17;;;;;;;18.97;9.73;;;9.50;99.90;;;7.33;99.57;100801.97;10538819;28;20056;-87
2022/12/25 09:58:22;;;;;;;20.80;10.07;;;9.70;99.90;;;7.37;99.82;100808.63;10550464;28;20048;-91
2022/12/25 10:04:11;;;;;;;18.53;9.90;;;9.70;99.90;;;7.43;99.50;100808.94;10557029;28;20056;-87
2022/12/25 10:09:41;;;;;;;11.83;5.93;;;9.70;99.90;;;7.51;99.47;100810.94;10506105;28;20543;-87
2022/12/25 10:15:28;;;;;;;12.70;6.87;;;9.70;99.90;;;7.50;99.35;100807.47;10552394;28;20056;-87
2022/12/25 10:20:37;;;;;;;13.83;8.30;;;9.70;99.90;;;7.55;99.12;100807.03;10550109;28;20063;-87
2022/12/25 10:25:42;;;;;;;10.87;6.00;;;9.70;99.90;;;7.57;98.87;100796.34;10552961;28;20075;-87
2022/12/25 10:30:45;;;;;;;11.63;7.23;;;9.70;99.90;;;7.57;99.04;100788.41;10547100;28;20435;-87
2022/12/25 10:35:48;;;;;;;18.23;8.40;;;9.70;99.90;;;7.58;98.79;100788.28;10536112;28;20587;-87
2022/12/25 10:41:20;;;;;;;14.33;7.40;;;9.70;99.90;;;7.66;98.81;100782.31;10560507;28;20060;-87
2022/12/25 10:46:28;;;;;;;;;;;9.80;99.90;;;7.68;98.84;100780.38;10562446;28;20056;-86
2022/12/25 10:51:35;;;;;;;16.50;8.27;;;9.80;99.90;;;7.77;99.22;100779.56;10552493;28;20003;-87
2022/12/25 10:56:38;;;;;;;10.27;6.10;;;10.00;99.90;;;8.11;99.23;100785.34;10534293;28;20056;-86
2022/12/25 11:01:41;;;;;;;9.43;5.40;;;10.40;99.90;;;8.36;99.15;100773.38;10551585;28;20059;-86
2022/12/25 11:07:06;;;;;;;10.23;5.80;;;10.60;99.90;;;8.48;98.76;100774.91;10526691;28;20056;-86
2022/12/25 11:12:18;;;;;;;9.47;5.07;;;10.70;99.90;;;8.54;98.57;100768.22;10528796;28;20496;-87
2022/12/25 11:17:25;;;;;;;11.57;6.00;;;10.70;99.90;;;8.55;97.71;100765.44;10543116;28;20462;-87
2022/12/25 11:22:28;;;;;;;11.50;6.20;;;10.70;99.90;;;8.56;97.60;100760.97;10520305;28;20080;-87
2022/12/25 11:27:32;;;;;;;12.10;6.37;;;10.70;99.90;;;8.60;96.86;100756.22;10539417;28;20134;-87
2022/12/25 11:32:51;;;;;;;12.47;6.50;;;10.70;99.90;;;8.64;95.95;100753.16;10560717;27;20065;-87
2022/12/25 11:37:54;;;;;;;12.17;7.60;;;10.80;99.90;;;8.70;95.71;100747.28;10543267;28;20055;-87
2022/12/25 11:43:37;;;;;;;8.50;5.10;;;10.80;99.90;;;8.79;95.75;100746.44;10561763;28;21473;-87
2022/12/25 11:48:59;;;;;;;10.27;5.93;;;10.90;99.90;;;8.86;95.27;100741.38;10528786;28;20066;-88
2022/12/25 11:54:24;;;;;;;10.60;6.28;;;11.00;99.90;;;8.93;95.58;100731.03;10558577;28;20059;-87
2022/12/25 11:59:37;;;;;;;9.47;5.30;;;11.10;99.90;;;9.02;95.44;100736.31;10531132;28;20048;-88
2022/12/25 12:04:43;;;;;;;13.03;6.27;;;11.10;99.90;;;9.11;95.36;100729.31;10526706;28;20063;-88
2022/12/25 12:10:17;;;;;;;13.53;6.33;;;11.30;99.90;;;9.18;95.10;100722.47;10540636;28;20833;-88
2022/12/25 12:15:48;;;;;;;12.50;6.03;;;11.30;99.90;;;9.25;94.81;100723.53;10515011;28;20063;-87
2022/12/25 12:21:16;;;;;;;9.80;5.23;;;11.40;99.90;;;9.31;94.49;100736.22;10527141;28;20065;-92
2022/12/25 12:26:29;;;;;;;9.33;5.53;;;11.50;99.90;;;9.35;94.55;100726.97;10554847;28;20195;-96
2022/12/25 12:31:47;;;;;;;8.50;4.97;;;11.50;99.90;;;9.42;93.72;100727.25;10547967;28;20056;-90
2022/12/25 12:37:02;;;;;;;10.07;6.20;;;11.60;99.90;;;9.44;93.91;100729.75;10547710;28;20059;-95
2022/12/25 12:42:15;;;;;;;8.67;4.37;;;11.60;99.90;;;9.45;93.87;100729.56;10521438;27;20070;-95
2022/12/25 12:47:48;;;;;;;9.97;5.83;;;11.60;99.90;;;9.39;93.12;100728.34;10549171;28;20091;-94
2022/12/25 12:52:51;;;;;;;8.70;5.07;;;11.60;99.90;;;9.29;93.10;100738.16;10546186;28;20061;-94
2022/12/25 12:58:04;;;;;;;12.40;7.17;;;11.60;99.90;;;9.16;93.08;100742.13;10560270;28;20635;-94
2022/12/25 13:04:04;;;;;;;17.10;8.67;;;11.40;99.90;;;8.99;93.50;100747.19;10572530;28;20071;-95
2022/12/25 13:09:27;;;;;;;21.53;9.97;;;11.30;99.90;;;8.89;94.12;100750.88;10544316;28;20079;-93
2022/12/25 13:14:30;;;;;;;17.70;8.13;;;11.20;99.90;;;8.84;94.59;100738.88;10542628;28;20060;-95
2022/12/25 13:19:35;;;;;;;14.87;8.00;;;11.10;99.90;;;8.77;94.78;100737.78;10527148;28;20063;-95
2022/12/25 13:24:38;;;;;;;17.10;7.93;;;11.10;99.90;;;8.78;95.42;100734.16;10540049;28;20088;-95
2022/12/25 13:29:41;;;;;;;16.40;7.90;;;11.10;99.90;;;8.79;95.65;100738.47;10555884;28;20383;-94
2022/12/25 13:34:45;;;;;;;15.60;7.87;;;11.10;99.90;;;8.81;96.21;100743.63;10542406;28;20147;-93
2022/12/25 13:39:51;;;;;;;19.87;10.57;;;11.10;99.90;;;8.78;96.36;100744.75;10540489;28;20102;-94
2022/12/25 13:45:06;;;;;;;15.90;8.67;;;11.00;99.90;;;8.72;96.51;100745.34;10588293;28;20084;-91
2022/12/25 13:50:30;;;;;;;16.83;8.90;;;11.00;99.90;;;8.66;96.91;100748.56;10532623;28;20060;-93
2022/12/25 13:55:33;;;;;;;16.13;8.97;;;10.90;99.90;;;8.63;97.15;100756.78;10550350;28;20060;-93
2022/12/25 14:00:58;;;;;;;18.57;9.27;;;10.90;99.90;;;8.60;97.40;100750.94;10533979;28;20063;-94
2022/12/25 14:06:17;;;;;;;19.33;9.87;;;10.80;99.90;;;8.53;97.68;100753.31;10553830;28;20106;-96
2022/12/25 14:11:23;;;;;;;24.27;11.13;;;10.70;99.90;;;8.48;98.09;100745.78;10551632;28;20059;-96
2022/12/25 14:16:27;;;;;;;28.37;12.53;;;10.70;99.90;;;8.40;97.91;100742.19;10548084;28;20060;-94
2022/12/25 14:21:39;;;;;;;22.50;11.20;;;10.70;99.90;;;8.33;98.41;100752.44;10528835;28;20621;-91
2022/12/25 14:27:14;;;;;;;19.03;9.80;;;10.60;99.90;;;8.31;98.81;100760.53;10549425;28;20455;-94
2022/12/25 14:32:27;;;;;;;21.33;10.27;;;10.50;99.90;;;8.26;98.99;100770.69;10533280;28;20158;-94
2022/12/25 14:37:32;;;;;;;31.27;13.80;;;10.50;99.90;;;8.23;99.39;100773.63;10550758;28;20091;-92
2022/12/25 14:42:35;;;;;;;30.47;13.97;;;10.50;99.90;;;8.22;99.72;100758.72;10551624;28;20090;-91
2022/12/25 14:47:51;;;;;;;33.87;14.67;;;10.50;99.90;;;8.18;99.95;100759.97;10550829;28;20323;-92
2022/12/25 14:52:55;;;;;;;23.27;11.10;;;10.40;99.90;;;8.16;100.00;100769.88;10554249;28;20065;-90
2022/12/25 14:58:06;;;;;;;25.30;11.40;;;10.40;99.90;;;8.09;100.00;100779.31;10572805;28;20056;-93
2022/12/25 15:03:36;;;;;;;47.13;22.47;;;10.40;99.90;;;8.01;100.00;100773.88;10546710;28;20052;-92
2022/12/25 15:08:39;;;;;;;30.33;14.27;;;10.30;99.90;;;7.98;100.00;100769.72;10553304;28;20064;-90
2022/12/25 15:13:42;;;;;;;32.07;14.57;;;10.20;99.90;;;7.96;100.00;100774.28;10555820;28;20060;-91
2022/12/25 15:18:46;;;;;;;26.93;12.87;;;10.20;99.90;;;7.91;100.00;100781.81;10562141;28;20063;-91
2022/12/25 15:23:50;;;;;;;26.17;12.80;;;10.20;99.90;;;7.88;100.00;100770.66;10541162;28;20130;-92
2022/12/25 15:28:54;;;;;;;23.60;11.40;;;10.10;99.90;;;7.83;100.00;100779.00;10566920;28;20060;-85
2022/12/25 15:34:01;;;;;;;22.03;12.17;;;10.10;99.90;;;7.78;100.00;100782.06;10516112;28;20052;-86
2022/12/25 15:39:04;;;;;;;22.77;11.80;;;10.00;99.90;;;7.70;100.00;100775.78;10540010;28;20147;-86
2022/12/25 15:44:07;;;;;;;27.23;12.60;;;9.90;99.90;;;7.61;100.00;100795.91;10525937;28;20084;-86
2022/12/25 15:49:12;;;;;;;20.50;10.50;;;9.80;99.90;;;7.51;100.00;100787.97;10571909;28;20080;-86
2022/12/25 15:54:15;;;;;;;28.23;11.57;;;9.80;99.90;;;7.42;100.00;100786.13;10544910;28;20060;-86
2022/12/25 15:59:20;;;;;;;22.47;11.23;;;9.70;99.90;;;7.35;100.00;100789.44;10564246;28;20056;-86
2022/12/25 16:04:25;;;;;;;22.60;11.03;;;9.60;99.90;;;7.29;100.00;100796.09;10541078;28;20175;-86
2022/12/25 16:09:28;;;;;;;28.83;13.47;;;9.60;99.90;;;7.22;100.00;100779.09;10527043;28;20055;-86
2022/12/25 16:14:32;;;;;;;25.10;13.00;;;9.50;99.90;;;7.17;100.00;100786.56;10554465;27;20047;-95
2022/12/25 16:19:36;;;;;;;28.87;14.93;;;9.40;99.90;;;7.13;100.00;100785.97;10592703;27;20047;-95
2022/12/25 16:24:39;;;;;;;37.20;16.47;;;9.40;99.90;;;7.13;100.00;100778.03;10589682;28;20067;-96
2022/12/25 16:29:42;;;;;;;33.30;15.70;;;9.40;99.90;;;7.11;100.00;100773.88;10610841;27;20040;-96
2022/12/25 16:34:47;;;;;;;27.23;14.83;;;9.40;99.90;;;7.10;100.00;100791.53;10591956;27;20041;-96
2022/12/25 16:39:50;;;;;;;42.13;18.90;;;9.40;99.90;;;7.05;100.00;100762.03;10605100;27;20040;-96
2022/12/25 16:44:53;;;;;;;38.13;17.90;;;9.40;99.90;;;7.09;100.00;100757.31;10600678;27;20032;-95
2022/12/25 16:49:57;;;;;;;44.90;20.50;;;9.40;99.90;;;7.10;100.00;100773.03;10606585;28;20060;-95
2022/12/25 16:55:01;;;;;;;42.27;19.33;;;9.30;99.90;;;7.07;100.00;100769.81;10594680;28;20049;-96
2022/12/25 17:00:07;;;;;;;30.10;16.23;;;9.30;99.90;;;7.08;100.00;100766.22;10606245;28;20060;-96
2022/12/25 17:05:10;;;;;;;41.73;20.30;;;9.40;99.90;;;7.04;100.00;100763.00;10594795;27;20056;-96
2022/12/25 17:10:20;;;;;;;33.83;16.27;;;9.30;99.90;;;7.04;100.00;100759.53;10578718;28;20063;-96
2022/12/25 17:15:23;;;;;;;42.73;18.57;;;9.30;99.90;;;7.01;100.00;100762.41;10558442;28;20064;-96
2022/12/25 17:20:27;;;;;;;35.13;17.73;;;9.30;99.90;;;6.93;100.00;100755.97;10577945;28;20064;-96
2022/12/25 17:25:32;;;;;;;33.80;16.93;;;9.30;99.90;;;6.92;100.00;100764.03;10596616;28;20056;-95
2022/12/25 17:30:35;;;;;;;24.87;14.17;;;9.20;99.90;;;6.94;100.00;100756.81;10613510;28;20035;-96
2022/12/25 17:35:39;;;;;;;29.87;15.30;;;9.20;99.90;;;6.87;100.00;100738.00;10603184;28;20053;-95
2022/12/25 17:40:42;;;;;;;32.13;16.60;;;9.20;99.90;;;6.90;100.00;100748.31;10592122;28;20106;-96
2022/12/25 17:45:45;;;;;;;31.00;14.47;;;9.20;99.90;;;6.81;100.00;100735.06;10571654;28;20064;-96
2022/12/25 17:50:49;;;;;;;27.30;13.70;;;9.10;99.90;;;6.72;100.00;100734.03;10554361;28;20060;-96
2022/12/25 17:55:57;;;;;;;31.73;15.43;;;9.00;99.90;;;6.69;100.00;100740.41;10563087;28;20065;-96
2022/12/25 18:01:06;;;;;;;37.80;18.67;;;9.00;99.90;;;6.61;100.00;100745.50;10564080;28;20090;-96
2022/12/25 18:06:13;;;;;;;30.37;16.70;;;8.90;99.90;;;6.57;100.00;100757.28;10568102;27;20398;-83
2022/12/25 18:11:22;;;;;;;44.33;23.13;;;8.80;99.90;;;6.48;100.00;100758.06;10574561;28;20497;-84
2022/12/25 18:16:27;;;;;;;48.80;23.47;;;8.70;99.90;;;6.46;100.00;100754.69;10539995;28;20119;-78
2022/12/25 18:21:30;;;;;;;44.33;22.10;;;8.70;99.90;;;6.41;100.00;100748.94;10539157;28;20067;-79
2022/12/25 18:26:34;;;;;;;50.20;23.87;;;8.70;99.90;;;6.39;100.00;100746.44;10560254;28;20502;-80
2022/12/25 18:31:37;;;;;;;45.53;23.43;;;8.70;99.90;;;6.37;100.00;100752.84;10561364;28;20061;-80
2022/12/25 18:36:41;;;;;;;50.17;22.70;;;8.60;99.90;;;6.37;100.00;100751.03;10540938;28;20439;-80
2022/12/25 18:47:05;;;;;;;33.15;17.15;;;8.70;99.90;;;6.38;100.00;100736.88;10559401;28;20052;-79
2022/12/25 18:52:08;;;;;;;46.27;20.70;;;8.60;99.90;;;6.35;100.00;100741.53;10555116;28;20064;-79
2022/12/25 18:57:31;;;;;;;30.67;15.83;;;8.60;99.90;;;6.28;100.00;100740.38;10569734;27;20052;-79
2022/12/25 19:02:34;;;;;;;28.07;15.50;;;8.50;99.90;;;6.16;100.00;100734.31;10559283;27;20114;-79
2022/12/25 19:07:37;;;;;;;31.17;17.60;;;8.40;99.90;;;6.02;100.00;100724.91;10546882;28;20142;-79
2022/12/25 19:12:40;;;;;;;26.17;13.67;;;8.30;99.90;;;5.92;100.00;100710.78;10544259;28;20064;-80
2022/12/25 19:17:43;;;;;;;27.37;13.10;;;8.20;99.90;;;5.84;100.00;100721.09;10567654;27;20192;-79
2022/12/25 19:22:46;;;;;;;32.07;15.17;;;8.10;99.90;;;5.78;100.00;100725.06;10544848;28;20057;-81
2022/12/25 19:27:49;;;;;;;27.57;14.70;;;8.00;99.90;;;5.80;100.00;100715.22;10541289;28;20189;-80
2022/12/25 19:32:52;;;;;;;24.80;13.57;;;8.10;99.90;;;5.83;100.00;100720.25;10548039;28;20060;-81
2022/12/25 19:37:55;;;;;;;29.70;14.53;;;8.10;99.90;;;5.93;100.00;100736.19;10540560;28;20096;-80
2022/12/25 19:42:58;;;;;;;51.33;22.93;;;8.20;99.90;;;6.01;100.00;100722.41;10547147;28;20099;-81
2022/12/25 19:48:01;;;;;;;70.50;27.07;;;8.20;99.90;;;6.09;100.00;100714.69;10560153;28;20095;-80
2022/12/25 19:53:04;;;;;;;59.13;24.40;;;8.30;99.90;;;6.16;100.00;100708.75;10554275;28;20113;-80
2022/12/25 19:58:07;;;;;;;47.27;20.63;;;8.40;99.90;;;6.23;100.00;100702.97;10559594;27;20522;-80
2022/12/25 20:03:10;;;;;;;42.67;21.13;;;8.40;99.90;;;6.29;100.00;100689.28;10553831;28;20064;-80
2022/12/25 20:08:13;;;;;;;38.40;21.53;;;8.50;99.90;;;6.35;100.00;100675.56;10528353;28;20127;-81
2022/12/25 20:13:17;;;;;;;40.27;21.60;;;8.60;99.90;;;6.40;100.00;100676.00;10537192;28;20055;-81
2022/12/25 20:18:20;;;;;;;39.70;19.17;;;8.70;99.90;;;6.43;100.00;100678.41;10528569;28;20067;-81
2022/12/25 20:23:23;;;;;;;41.00;20.17;;;8.70;99.90;;;6.48;100.00;100693.84;10536467;28;20154;-80
2022/12/25 20:28:27;;;;;;;37.50;19.37;;;8.70;99.90;;;6.52;100.00;100674.97;10532912;28;20056;-77
2022/12/25 20:33:30;;;;;;;37.77;18.20;;;8.70;99.90;;;6.55;100.00;100664.16;10565563;27;20592;-77
2022/12/25 20:38:35;;;;;;;29.37;15.23;;;8.80;99.90;;;6.53;100.00;100665.25;10526114;28;20060;-86
2022/12/25 20:43:38;;;;;;;33.30;17.57;;;8.80;99.90;;;6.61;100.00;100681.28;10518466;28;20058;-81
2022/12/25 20:48:47;;;;;;;30.40;16.57;;;8.90;99.90;;;6.60;100.00;100672.53;10559093;27;20134;-82
2022/12/25 20:53:51;;;;;;;37.10;17.20;;;8.90;99.90;;;6.63;100.00;100677.53;10562973;28;20083;-82
2022/12/25 20:58:57;;;;;;;31.50;16.03;;;8.90;99.90;;;6.63;100.00;100677.53;10564400;27;20164;-80
2022/12/25 21:04:00;;;;;;;29.73;16.00;;;8.90;99.90;;;6.67;100.00;100672.84;10517697;28;20091;-81
2022/12/25 21:09:04;;;;;;;33.93;16.37;;;8.90;99.90;;;6.69;100.00;100676.19;10549818;28;20103;-85
2022/12/25 21:14:07;;;;;;;31.10;16.03;;;8.90;99.90;;;6.70;100.00;100668.13;10505385;28;20071;-82
2022/12/25 21:19:10;;;;;;;28.73;15.93;;;9.00;99.90;;;6.70;100.00;100673.41;10543265;28;20060;-83
2022/12/25 21:24:13;;;;;;;29.73;15.70;;;9.00;99.90;;;6.71;100.00;100685.63;10548908;28;20067;-80
2022/12/25 21:29:16;;;;;;;20.47;11.37;;;9.00;99.90;;;6.73;100.00;100660.91;10534199;28;20060;-82
2022/12/25 21:34:19;;;;;;;21.50;10.77;;;9.00;99.90;;;6.73;100.00;100651.19;10560198;28;20059;-81
2022/12/25 21:39:22;;;;;;;28.80;13.00;;;9.00;99.90;;;6.73;100.00;100660.91;10530299;28;20106;-85
2022/12/25 21:44:27;;;;;;;22.27;11.90;;;9.00;99.90;;;6.75;100.00;100664.25;10525454;28;20068;-83
2022/12/25 21:54:52;;;;;;;23.53;11.87;;;9.00;99.90;;;6.81;100.00;100677.78;10564700;28;20056;-94
2022/12/25 21:59:55;;;;;;;20.10;10.90;;;9.00;99.90;;;6.81;100.00;100680.41;10525184;28;20134;-95
2022/12/25 22:04:58;;;;;;;20.50;11.47;;;9.10;99.90;;;6.84;100.00;100695.19;10525232;28;20135;-91
2022/12/25 22:10:04;;;;;;;21.57;11.43;;;9.10;99.90;;;6.84;100.00;100680.16;10512906;28;20056;-90
2022/12/25 22:15:09;;;;;;;14.57;8.70;;;9.10;99.90;;;6.79;100.00;100661.22;10559330;27;20150;-93
2022/12/25 22:20:25;;;;;;;16.57;9.17;;;9.10;99.90;;;6.86;100.00;100661.53;10535642;28;20056;-91
2022/12/25 22:25:29;;;;;;;17.80;9.93;;;9.10;99.90;;;6.86;100.00;100677.38;10537402;28;20132;-92
2022/12/25 22:30:32;;;;;;;17.73;9.40;;;9.10;99.90;;;6.85;100.00;100671.25;10539971;28;20056;-91
2022/12/25 22:35:35;;;;;;;24.80;12.13;;;9.10;99.90;;;6.81;100.00;100667.22;10535488;28;20055;-91
2022/12/25 22:40:38;;;;;;;24.20;11.97;;;9.10;99.90;;;6.82;100.00;100660.13;10549166;28;20056;-91
2022/12/25 22:45:42;;;;;;;24.10;11.63;;;9.10;99.90;;;6.85;100.00;100675.72;10512565;28;20067;-94